レシフェ の空港の天気 - METARとTAF

レシフェ・グアララペス国際空港 ( SBRF / REC ) - ブラジル ペルナンブーコ州レシフェ
飛行場実況気象(Metar)
観測時間02/17 20:00 BRT (02/17 23:00 UTC)
風向・風速東 3m/s
視程10km以上
天気現象
全天の4割程度の雲 雲底高度 490m
気温28℃
湿度84%
気圧1013hPa
METARSBRF 172300Z 09005KT 040V130 9999 SCT016 28/25 Q1013
過去の天気等 Google飛行場航空写真 Wunderground天気予報

過去48時間のMETAR

飛行場予報(TAF)
発表時間: 2/17 13:00 BRT (2/17 16:00 UTC)
予報対象時間: 17日15時 BRT ~ 18日15時 BRT
風向・風速東北東 4m/s
視程8000m
全天の4割程度の雲 雲底高度 610m
17日23時 BRT ~ 18日2時 BRT に 確率 30% で一時的に
視程6000m
天気現象しゅう雨
全天の8割程度の雲 雲底高度 520m
TAF SBRF 171600Z 1718/1818 06008KT 8000 SCT020 TN26/1808Z TX30/1815Z
PROB30 TEMPO 1802/1805 6000 SHRA BKN017 RMK PCH